EDHL/LBC METAR and TAF weather

Enter ICAO airport designator
Station Type Date Time Source
EDHL METAR 2018/01/16 09:20 UTC NOAA

EDHL 160920Z 21008KT 160V240 9999 BKN027 03/03 Q0986


Station Type Date Time Source
EDHL Decoded METAR 2018/01/16 09:20 UTC NOAA

Luebeck-Blankensee, Germany (EDHL) 53-49N 010-42E 15M
Jan 16, 2018 - 04:20 AM EST / 2018.01.16 0920 UTC
Wind: from the SSW (210 degrees) at 9 MPH (8 KT) (direction variable):0
Visibility: greater than 7 mile(s):0
Sky conditions: mostly cloudy
Temperature: 37 F (3 C)
Dew Point: 37 F (3 C)
Relative Humidity: 100%
Pressure (altimeter): 29.12 in. Hg (0986 hPa)
ob: EDHL 160920Z 21008KT 160V240 9999 BKN027 03/03 Q0986
cycle: 9

Station Type Date Time Source
EDHL TAF 2010/02/22 14:20 UTC NOAA

METAR EDHL 221420Z 15004KT 110V180 9999 FEW039 SCT120 05/02 Q0990
RMK X


Example: see airport list